Manzanillo, Mexico

8:27 PM CDT on September 26, 2016 (GMT -0500)
Playa De Oro International | | Change Station

Elev 26 ft 19.14 °N, 104.56 °W | Updated 35 minutes ago

Scattered Clouds
Scattered Clouds
86 °F
Feels Like 99 °F
N
12
Wind Variable Wind from West

Today
High -- | Low -- °F
--% Chance of Precip.
Yesterday
High -- | Low -- °F
Precip. -- in
Pressure 29.74 in
Visibility 12.0 miles
Clouds Few 2000 ft
Scattered Clouds 21000 ft
Heat Index 99 °F
Dew Point 79 °F
Humidity 79%
Rainfall 0.00 in
Snow Depth Not available.
7:47 AM 7:49 PM
Waning Crescent, 15% visible
METAR MMZO 270052Z 27010KT 12SM FEW020 SCT210 30/26 A2974 RMK 8/104 CB DSNT NE
Pressure 29.74 in
Visibility 12.0 miles
Clouds Few 2000 ft
Scattered Clouds 21000 ft
Heat Index 99 °F
Dew Point 79 °F
Humidity 79%
Rainfall 0.00 in
Snow Depth Not available.
7:47 AM 7:49 PM
Waning Crescent, 15% visible
METAR MMZO 270052Z 27010KT 12SM FEW020 SCT210 30/26 A2974 RMK 8/104 CB DSNT NE

10-Day Weather Forecast

No radar image for this location.
×

Almanac

Astronomy

Sep. 26, 2016 Rise Set
Actual Time
Civil Twilight
Nautical Twilight
Astronomical Twilight
Moon
Length of Visible Light
Length of Day
Tomorrow will be .
, % of the Moon is Illuminated

Today's Extremes

Country Highs Country Lows

Community

WunderPhotos

Upload Photos

1,942,006 photos uploaded!

WunderBlog® & News

Nearby

Air Quality

  Air Quality AQ Index Pollutant
Not available.

Snow Depth

Station Depth Elevation

Earthquake Activity

City Distance Mag. Time & Date
Minimum magnitude displayed is 2.5.

Coastal Water Temperatures

Place Temperature

Stations

Nearby Weather Stations

Station Location Temp. Windchill Dew Point Humidity Wind Precip. Elev Updated Type